createdAt,value
2022-10-11T00:00:07.579Z,94050.38
2022-10-11T00:03:10.842Z,94059.91
2022-10-11T00:06:14.974Z,94061.94
2022-10-11T00:09:18.617Z,94063.50
2022-10-11T00:12:22.322Z,94071.31
2022-10-11T00:15:26.628Z,94073.28
2022-10-11T00:18:29.610Z,94073.69
2022-10-11T00:21:33.521Z,94078.31
2022-10-11T00:24:36.541Z,94078.78
2022-10-11T00:27:41.050Z,94074.88
2022-10-11T00:30:44.789Z,94084.06
2022-10-11T00:33:49.134Z,94077.41
2022-10-11T00:36:52.333Z,94082.28
2022-10-11T00:39:55.482Z,94093.63
2022-10-11T00:42:59.250Z,94081.72
2022-10-11T00:46:14.557Z,94088.69
2022-10-11T00:49:24.153Z,94096.34
2022-10-11T00:52:39.376Z,94085.09
2022-10-11T00:56:06.447Z,94085.50
2022-10-11T00:59:15.625Z,94090.66
2022-10-11T01:02:20.247Z,94087.63
2022-10-11T01:05:31.693Z,94081.53
2022-10-11T01:08:35.111Z,94083.09
2022-10-11T01:11:42.422Z,94070.41
2022-10-11T01:15:03.627Z,94071.38
2022-10-11T01:18:10.241Z,94080.16
2022-10-11T01:21:23.947Z,94072.00
2022-10-11T01:24:54.328Z,94075.34
2022-10-11T01:28:09.960Z,94071.94
2022-10-11T01:31:22.085Z,94065.72
2022-10-11T01:35:00.732Z,94062.13
2022-10-11T01:38:14.067Z,94065.22
2022-10-11T01:41:28.329Z,94064.13
2022-10-11T01:44:35.163Z,94065.69
2022-10-11T01:47:39.591Z,94067.63
2022-10-11T01:50:47.963Z,94061.22
2022-10-11T01:54:03.625Z,94054.19
2022-10-11T01:57:23.818Z,94052.00
2022-10-11T02:00:33.672Z,94048.81
2022-10-11T02:03:51.903Z,94049.81
2022-10-11T02:07:12.334Z,94047.75
2022-10-11T02:10:45.703Z,94043.53
2022-10-11T02:13:59.424Z,94038.47
2022-10-11T02:17:09.061Z,94030.53
2022-10-11T02:20:18.643Z,94038.25
2022-10-11T02:23:27.615Z,94035.06
2022-10-11T02:26:33.805Z,94030.59
2022-10-11T02:29:40.694Z,94038.31
2022-10-11T02:32:47.334Z,94034.50
2022-10-11T02:36:06.971Z,94025.81
2022-10-11T02:39:43.114Z,94031.13
2022-10-11T02:43:00.213Z,94025.53
2022-10-11T02:46:04.839Z,94019.25
2022-10-11T02:49:09.217Z,94014.53
2022-10-11T02:52:12.086Z,94015.00
2022-10-11T02:55:15.990Z,94007.59
2022-10-11T02:58:20.518Z,93998.31
2022-10-11T03:01:23.853Z,93996.66
2022-10-11T03:04:27.560Z,93988.03
2022-10-11T03:07:31.509Z,93980.47
2022-10-11T03:10:35.933Z,93978.97
2022-10-11T03:13:39.928Z,93974.31
2022-10-11T03:16:43.460Z,93967.25
2022-10-11T03:19:46.701Z,93959.28
2022-10-11T03:22:50.393Z,93953.56
2022-10-11T03:25:54.343Z,93953.22
2022-10-11T03:28:57.972Z,93960.19
2022-10-11T03:32:01.279Z,93952.38
2022-10-11T03:35:04.869Z,93955.69
2022-10-11T03:38:12.244Z,93948.41
2022-10-11T03:41:16.225Z,93948.56
2022-10-11T03:44:19.128Z,93943.44
2022-10-11T03:47:23.065Z,93942.03
2022-10-11T03:50:26.883Z,93931.56
2022-10-11T03:53:30.407Z,93931.31
2022-10-11T03:56:33.964Z,93921.50
2022-10-11T03:59:37.526Z,93930.88
2022-10-11T04:02:40.706Z,93920.78
2022-10-11T04:05:44.186Z,93914.84
2022-10-11T04:08:47.750Z,93915.09
2022-10-11T04:11:51.654Z,93916.00
2022-10-11T04:14:54.643Z,93911.16
2022-10-11T04:17:57.857Z,93905.69
2022-10-11T04:21:00.767Z,93899.19
2022-10-11T04:24:04.195Z,93893.53
2022-10-11T04:27:07.053Z,93902.31
2022-10-11T04:30:11.134Z,93889.97
2022-10-11T04:33:15.107Z,93889.25
2022-10-11T04:36:19.062Z,93876.16
2022-10-11T04:39:22.574Z,93882.53
2022-10-11T04:42:26.272Z,93866.19
2022-10-11T04:45:29.133Z,93857.00
2022-10-11T04:48:32.961Z,93861.00
2022-10-11T04:51:36.536Z,93854.69
2022-10-11T04:54:40.507Z,93849.19
2022-10-11T04:57:43.948Z,93848.88
2022-10-11T05:00:48.008Z,93837.19
2022-10-11T05:03:52.083Z,93845.44
2022-10-11T05:06:56.568Z,93842.09
2022-10-11T05:10:00.504Z,93844.09
2022-10-11T05:13:03.831Z,93832.53
2022-10-11T05:16:10.773Z,93835.53
2022-10-11T05:19:14.662Z,93830.19
2022-10-11T05:22:17.525Z,93823.44
2022-10-11T05:25:21.381Z,93822.09
2022-10-11T05:28:25.019Z,93821.72
2022-10-11T05:31:28.031Z,93820.78
2022-10-11T05:34:31.599Z,93820.25
2022-10-11T05:37:35.190Z,93814.19
2022-10-11T05:40:40.446Z,93811.69
2022-10-11T05:43:45.210Z,93806.41
2022-10-11T05:46:48.502Z,93799.00
2022-10-11T05:49:52.090Z,93805.72
2022-10-11T05:52:56.970Z,93802.25
2022-10-11T05:56:01.025Z,93792.13
2022-10-11T05:59:06.437Z,93795.72
2022-10-11T06:02:13.403Z,93788.66
2022-10-11T06:05:17.001Z,93782.19
2022-10-11T06:08:20.594Z,93779.22
2022-10-11T06:11:28.197Z,93777.34
2022-10-11T06:14:32.083Z,93770.13
2022-10-11T06:17:35.617Z,93774.03
2022-10-11T06:20:38.499Z,93767.31
2022-10-11T06:23:41.841Z,93765.34
2022-10-11T06:26:44.726Z,93767.59
2022-10-11T06:29:48.678Z,93764.78
2022-10-11T06:32:52.248Z,93766.75
2022-10-11T06:36:01.775Z,93767.13
2022-10-11T06:39:05.514Z,93759.88
2022-10-11T06:42:08.813Z,93752.94
2022-10-11T06:45:12.299Z,93749.81
2022-10-11T06:48:16.132Z,93750.44
2022-10-11T06:51:21.409Z,93755.78
2022-10-11T06:54:25.203Z,93747.44
2022-10-11T06:57:29.766Z,93746.94
2022-10-11T07:00:33.055Z,93743.78
2022-10-11T07:03:37.219Z,93740.41
2022-10-11T07:06:42.157Z,93735.03
2022-10-11T07:09:45.740Z,93723.25
2022-10-11T07:12:49.655Z,93725.19
2022-10-11T07:15:53.158Z,93722.44
2022-10-11T07:19:01.240Z,93719.72
2022-10-11T07:22:05.208Z,93723.56
2022-10-11T07:25:08.844Z,93721.66
2022-10-11T07:28:13.256Z,93719.28
2022-10-11T07:31:20.428Z,93714.34
2022-10-11T07:34:23.566Z,93717.47
2022-10-11T07:37:27.561Z,93723.38
2022-10-11T07:40:30.580Z,93730.28
2022-10-11T07:43:35.079Z,93726.00
2022-10-11T07:46:38.651Z,93720.25
2022-10-11T07:49:41.555Z,93719.28
2022-10-11T07:52:45.127Z,93711.47
2022-10-11T07:55:48.756Z,93714.06
2022-10-11T07:58:55.120Z,93708.13
2022-10-11T08:01:58.679Z,93700.97
2022-10-11T08:05:01.685Z,93703.13
2022-10-11T08:08:05.596Z,93701.56
2022-10-11T08:11:09.273Z,93698.09
2022-10-11T08:14:12.359Z,93701.44
2022-10-11T08:17:16.417Z,93700.78
2022-10-11T08:20:19.435Z,93699.53
2022-10-11T08:23:23.564Z,93699.88
2022-10-11T08:26:26.500Z,93696.88
2022-10-11T08:29:30.281Z,93691.25
2022-10-11T08:32:33.695Z,93694.94
2022-10-11T08:35:37.766Z,93687.06
2022-10-11T08:38:42.154Z,93687.16
2022-10-11T08:41:56.428Z,93692.47
2022-10-11T08:45:12.289Z,93685.47
2022-10-11T08:48:21.444Z,93685.13
2022-10-11T08:52:02.943Z,93687.88
2022-10-11T08:55:18.383Z,93676.22
2022-10-11T08:58:38.074Z,93672.56
2022-10-11T09:01:50.214Z,93672.31
2022-10-11T09:04:56.294Z,93671.03
2022-10-11T09:08:19.967Z,93667.81
2022-10-11T09:11:53.242Z,93662.91
2022-10-11T09:15:18.276Z,93664.31
2022-10-11T09:18:49.183Z,93671.38
2022-10-11T09:22:17.709Z,93675.88
2022-10-11T09:25:42.156Z,93672.28
2022-10-11T09:29:11.304Z,93677.78
2022-10-11T09:32:18.266Z,93676.84
2022-10-11T09:35:23.877Z,93676.75
2022-10-11T09:38:44.058Z,93683.41
2022-10-11T09:41:52.964Z,93680.16
2022-10-11T09:45:00.606Z,93680.31
2022-10-11T09:48:07.552Z,93686.06
2022-10-11T09:51:20.869Z,93685.91
2022-10-11T09:54:48.989Z,93691.50
2022-10-11T09:57:55.789Z,93694.19
2022-10-11T10:01:08.220Z,93695.47
2022-10-11T10:04:19.664Z,93702.78
2022-10-11T10:07:23.823Z,93709.41
2022-10-11T10:10:32.859Z,93716.53
2022-10-11T10:13:50.641Z,93714.75
2022-10-11T10:17:18.019Z,93723.38
2022-10-11T10:20:28.532Z,93729.13
2022-10-11T10:23:35.451Z,93729.50
2022-10-11T10:26:40.468Z,93735.72
2022-10-11T10:30:01.236Z,93739.38
2022-10-11T10:33:07.844Z,93739.69
2022-10-11T10:36:20.305Z,93737.75
2022-10-11T10:39:34.615Z,93740.88
2022-10-11T10:42:38.910Z,93727.59
2022-10-11T10:46:10.587Z,93734.44
2022-10-11T10:53:05.509Z,93748.94
2022-10-11T10:56:15.553Z,93747.41
2022-10-11T10:59:36.726Z,93751.09
2022-10-11T11:02:58.219Z,93743.53
2022-10-11T11:06:06.988Z,93745.09
2022-10-11T11:09:23.824Z,93751.50
2022-10-11T11:12:44.836Z,93745.78
2022-10-11T11:16:03.817Z,93747.47
2022-10-11T11:19:29.792Z,93745.66
2022-10-11T11:22:39.394Z,93751.63
2022-10-11T11:26:01.761Z,93751.22
2022-10-11T11:29:24.658Z,93749.78
2022-10-11T11:32:33.340Z,93743.28
2022-10-11T11:35:53.692Z,93743.38
2022-10-11T11:39:03.609Z,93749.38
2022-10-11T11:42:42.510Z,93755.84
2022-10-11T11:45:51.558Z,93757.41
2022-10-11T11:48:56.665Z,93759.75
2022-10-11T11:52:00.561Z,93762.66
2022-10-11T11:55:53.859Z,93760.69
2022-10-11T11:59:07.373Z,93761.13
2022-10-11T12:02:23.389Z,93767.41
2022-10-11T12:05:30.925Z,93770.47
2022-10-11T12:08:36.519Z,93766.44
2022-10-11T12:11:56.284Z,93775.00
2022-10-11T12:15:26.679Z,93781.38
2022-10-11T12:18:31.419Z,93774.13
2022-10-11T12:21:39.714Z,93771.06
2022-10-11T12:24:56.313Z,93776.47
2022-10-11T12:28:01.277Z,93780.88
2022-10-11T12:31:06.653Z,93779.13
2022-10-11T12:34:10.359Z,93791.28
2022-10-11T12:37:54.310Z,93786.44
2022-10-11T12:41:18.737Z,93784.84
2022-10-11T12:44:29.340Z,93785.09
2022-10-11T12:47:47.429Z,93790.94
2022-10-11T12:51:05.786Z,93785.81
2022-10-11T12:54:37.399Z,93782.81
2022-10-11T12:58:04.762Z,93786.25
2022-10-11T13:01:11.526Z,93793.28
2022-10-11T13:04:19.692Z,93778.38
2022-10-11T13:07:24.485Z,93790.06
2022-10-11T13:10:48.017Z,93788.78
2022-10-11T13:14:14.370Z,93799.09
2022-10-11T13:17:27.254Z,93797.78
2022-10-11T13:20:37.507Z,93799.16
2022-10-11T13:23:43.309Z,93802.00
2022-10-11T13:26:49.488Z,93791.38
2022-10-11T13:29:55.548Z,93800.97
2022-10-11T13:33:00.691Z,93803.13
2022-10-11T13:36:06.969Z,93814.47
2022-10-11T13:39:31.333Z,93810.75
2022-10-11T13:42:35.706Z,93805.19
2022-10-11T13:45:42.393Z,93812.94
2022-10-11T13:48:46.300Z,93808.91
2022-10-11T13:52:22.160Z,93812.13
2022-10-11T13:55:34.526Z,93805.13
2022-10-11T13:58:47.218Z,93804.72
2022-10-11T14:01:55.228Z,93806.91
2022-10-11T14:04:59.365Z,93806.06
2022-10-11T14:08:06.588Z,93804.13
2022-10-11T14:11:11.351Z,93809.94
2022-10-11T14:14:33.639Z,93810.53
2022-10-11T14:17:43.591Z,93805.28
2022-10-11T14:20:47.270Z,93807.88
2022-10-11T14:23:59.450Z,93816.22
2022-10-11T14:27:06.522Z,93816.53
2022-10-11T14:30:25.430Z,93815.00
2022-10-11T14:33:30.040Z,93818.38
2022-10-11T14:36:33.704Z,93821.69
2022-10-11T14:39:37.412Z,93820.25
2022-10-11T14:42:42.777Z,93815.59
2022-10-11T14:45:46.399Z,93814.53
2022-10-11T14:48:55.660Z,93817.13
2022-10-11T14:52:00.702Z,93817.84
2022-10-11T14:55:04.476Z,93816.41
2022-10-11T14:58:09.700Z,93823.81
2022-10-11T15:01:18.002Z,93823.72
2022-10-11T15:04:26.707Z,93828.16
2022-10-11T15:07:31.443Z,93839.91
2022-10-11T15:10:40.669Z,93839.19
2022-10-11T15:13:44.682Z,93834.53
2022-10-11T15:16:48.441Z,93839.69
2022-10-11T15:19:52.069Z,93843.41
2022-10-11T15:22:57.323Z,93840.19
2022-10-11T15:26:00.920Z,93849.13
2022-10-11T15:29:05.445Z,93848.00
2022-10-11T15:32:08.326Z,93827.25
2022-10-11T15:35:12.930Z,93843.34
2022-10-11T15:38:19.187Z,93834.81
2022-10-11T15:41:24.798Z,93840.28
2022-10-11T15:44:28.487Z,93841.41
2022-10-11T15:47:32.337Z,93852.81
2022-10-11T15:50:37.979Z,93850.44
2022-10-11T15:53:41.547Z,93848.03
2022-10-11T15:56:45.272Z,93853.59
2022-10-11T15:59:49.162Z,93850.38
2022-10-11T16:02:58.980Z,93859.97
2022-10-11T16:06:05.529Z,93858.84
2022-10-11T16:09:09.330Z,93858.91
2022-10-11T16:12:13.014Z,93857.06
2022-10-11T16:15:16.916Z,93864.22
2022-10-11T16:18:21.925Z,93863.19
2022-10-11T16:21:25.661Z,93859.47
2022-10-11T16:24:29.725Z,93863.84
2022-10-11T16:27:34.551Z,93873.34
2022-10-11T16:30:44.737Z,93877.66
2022-10-11T16:33:50.720Z,93885.63
2022-10-11T16:36:54.665Z,93895.00
2022-10-11T16:39:58.282Z,93895.19
2022-10-11T16:43:07.986Z,93899.13
2022-10-11T16:46:11.657Z,93901.28
2022-10-11T16:49:25.659Z,93902.66
2022-10-11T16:52:29.646Z,93904.81
2022-10-11T16:55:33.429Z,93921.28
2022-10-11T16:58:37.281Z,93916.16
2022-10-11T17:01:40.929Z,93917.91
2022-10-11T17:04:44.087Z,93914.16
2022-10-11T17:07:48.110Z,93917.44
2022-10-11T17:10:57.706Z,93918.88
2022-10-11T17:14:02.593Z,93915.59
2022-10-11T17:17:09.189Z,93916.28
2022-10-11T17:20:13.204Z,93917.25
2022-10-11T17:23:16.922Z,93910.19
2022-10-11T17:26:25.776Z,93913.56
2022-10-11T17:29:29.377Z,93925.41
2022-10-11T17:32:33.330Z,93929.59
2022-10-11T17:35:37.076Z,93932.19
2022-10-11T17:38:40.946Z,93938.13
2022-10-11T17:41:45.398Z,93940.06
2022-10-11T17:44:49.261Z,93938.41
2022-10-11T17:47:52.882Z,93933.34
2022-10-11T17:50:56.963Z,93922.88
2022-10-11T17:54:00.712Z,93929.63
2022-10-11T17:57:04.666Z,93936.41
2022-10-11T18:00:09.106Z,93940.59
2022-10-11T18:03:13.086Z,93938.34
2022-10-11T18:06:16.668Z,93943.94
2022-10-11T18:09:21.750Z,93942.59
2022-10-11T18:12:26.541Z,93945.97
2022-10-11T18:15:33.894Z,93943.06
2022-10-11T18:18:37.544Z,93949.00
2022-10-11T18:21:41.040Z,93944.34
2022-10-11T18:24:44.683Z,93945.47
2022-10-11T18:27:48.585Z,93936.75
2022-10-11T18:30:53.665Z,93938.38
2022-10-11T18:33:57.667Z,93932.91
2022-10-11T18:37:01.289Z,93939.97
2022-10-11T18:40:05.790Z,93933.03
2022-10-11T18:43:09.053Z,93938.06
2022-10-11T18:46:15.413Z,93940.06
2022-10-11T18:49:18.893Z,93936.44
2022-10-11T18:52:22.491Z,93932.06
2022-10-11T18:55:25.720Z,93934.00
2022-10-11T18:58:33.476Z,93938.47
2022-10-11T19:01:40.615Z,93940.72
2022-10-11T19:04:44.649Z,93942.22
2022-10-11T19:07:47.575Z,93946.97
2022-10-11T19:10:50.826Z,93945.06
2022-10-11T19:13:59.631Z,93936.56
2022-10-11T19:17:03.488Z,93941.06
2022-10-11T19:20:07.431Z,93931.59
2022-10-11T19:23:11.309Z,93936.91
2022-10-11T19:26:20.714Z,93939.81
2022-10-11T19:29:26.667Z,93927.91
2022-10-11T19:32:30.374Z,93932.72
2022-10-11T19:35:34.473Z,93934.00
2022-10-11T19:38:38.053Z,93931.97
2022-10-11T19:41:42.730Z,93932.44
2022-10-11T19:44:46.226Z,93929.69
2022-10-11T19:47:50.422Z,93926.91
2022-10-11T19:51:01.420Z,93932.16
2022-10-11T19:54:08.300Z,93930.75
2022-10-11T19:57:11.975Z,93945.91
2022-10-11T20:00:16.310Z,93941.19
2022-10-11T20:03:19.846Z,93934.97
2022-10-11T20:06:25.018Z,93939.34
2022-10-11T20:09:30.363Z,93936.81
2022-10-11T20:12:35.479Z,93939.47
2022-10-11T20:15:39.539Z,93947.63
2022-10-11T20:18:43.876Z,93940.69
2022-10-11T20:21:48.237Z,93944.38
2022-10-11T20:24:52.270Z,93948.13
2022-10-11T20:27:55.779Z,93937.25
2022-10-11T20:31:01.224Z,93942.81
2022-10-11T20:34:07.677Z,93938.16
2022-10-11T20:37:11.741Z,93943.84
2022-10-11T20:40:15.370Z,93947.22
2022-10-11T20:43:19.136Z,93955.00
2022-10-11T20:46:25.949Z,93962.00
2022-10-11T20:49:29.603Z,93951.09
2022-10-11T20:52:33.530Z,93950.78
2022-10-11T20:55:37.583Z,93953.50
2022-10-11T20:58:42.960Z,93942.25
2022-10-11T21:01:46.874Z,93948.56
2022-10-11T21:04:51.879Z,93951.16
2022-10-11T21:07:55.757Z,93957.78
2022-10-11T21:10:59.526Z,93954.50
2022-10-11T21:14:06.462Z,93959.25
2022-10-11T21:17:10.020Z,93950.53
2022-10-11T21:20:13.760Z,93963.44
2022-10-11T21:23:19.407Z,93964.59
2022-10-11T21:26:23.392Z,93959.88
2022-10-11T21:29:27.005Z,93955.50
2022-10-11T21:32:30.946Z,93963.19
2022-10-11T21:35:34.529Z,93960.31
2022-10-11T21:38:38.698Z,93964.00
2022-10-11T21:41:43.189Z,93964.44
2022-10-11T21:44:46.379Z,93959.72
2022-10-11T21:47:50.075Z,93961.19
2022-10-11T21:50:55.485Z,93965.56
2022-10-11T21:54:00.897Z,93958.59
2022-10-11T21:57:04.620Z,93964.47
2022-10-11T22:00:08.924Z,93962.66
2022-10-11T22:03:16.344Z,93968.16
2022-10-11T22:06:20.095Z,93963.41
2022-10-11T22:09:24.145Z,93959.81
2022-10-11T22:12:27.812Z,93967.88
2022-10-11T22:15:35.535Z,93964.22
2022-10-11T22:18:39.825Z,93971.22
2022-10-11T22:21:45.171Z,93976.00
2022-10-11T22:24:49.127Z,93974.19
2022-10-11T22:27:53.229Z,93973.50
2022-10-11T22:30:56.361Z,93972.41
2022-10-11T22:34:01.413Z,93968.75
2022-10-11T22:37:05.097Z,93961.41
2022-10-11T22:40:09.585Z,93968.31
2022-10-11T22:43:13.194Z,93976.34
2022-10-11T22:46:16.827Z,93981.09
2022-10-11T22:49:20.367Z,93980.31
2022-10-11T22:52:24.310Z,93984.31
2022-10-11T22:55:27.459Z,93984.69
2022-10-11T22:58:31.630Z,93985.06
2022-10-11T23:01:35.106Z,93981.78
2022-10-11T23:04:39.253Z,93976.63
2022-10-11T23:07:42.865Z,93980.66
2022-10-11T23:10:46.484Z,93989.78
2022-10-11T23:13:49.645Z,93994.13
2022-10-11T23:16:54.028Z,93990.09
2022-10-11T23:19:57.622Z,93995.91
2022-10-11T23:23:01.556Z,93998.09
2022-10-11T23:26:07.334Z,94002.72
2022-10-11T23:29:11.243Z,94001.22
2022-10-11T23:32:14.790Z,93996.44
2022-10-11T23:35:19.040Z,94011.75
2022-10-11T23:38:22.656Z,94008.00
2022-10-11T23:41:28.998Z,94010.16
2022-10-11T23:44:32.522Z,94019.28
2022-10-11T23:47:36.615Z,94019.63
2022-10-11T23:50:40.587Z,94024.69
2022-10-11T23:53:44.612Z,94027.22
2022-10-11T23:56:48.184Z,94029.72
2022-10-11T23:59:52.133Z,94028.94
